createdAt,value
2022-10-17T00:01:25.693Z,4.23
2022-10-17T00:03:52.197Z,3.80
2022-10-17T00:06:18.677Z,3.30
2022-10-17T00:08:45.361Z,4.03
2022-10-17T00:11:20.521Z,4.10
2022-10-17T00:13:49.111Z,4.43
2022-10-17T00:16:23.580Z,4.00
2022-10-17T00:18:50.105Z,3.40
2022-10-17T00:21:18.671Z,4.53
2022-10-17T00:23:45.760Z,3.63
2022-10-17T00:26:12.488Z,3.90
2022-10-17T00:28:39.100Z,4.23
2022-10-17T00:31:07.056Z,3.63
2022-10-17T00:33:35.153Z,4.13
2022-10-17T00:36:07.574Z,3.93
2022-10-17T00:38:34.718Z,3.97
2022-10-17T00:41:01.524Z,3.53
2022-10-17T00:43:29.659Z,3.73
2022-10-17T00:45:56.758Z,3.57
2022-10-17T00:48:25.058Z,3.80
2022-10-17T00:50:51.567Z,3.40
2022-10-17T00:53:18.686Z,4.03
2022-10-17T00:55:48.921Z,3.70
2022-10-17T00:58:15.853Z,4.03
2022-10-17T01:00:43.268Z,4.13
2022-10-17T01:03:09.806Z,3.53
2022-10-17T01:05:37.069Z,4.07
2022-10-17T01:08:04.121Z,4.33
2022-10-17T01:10:34.420Z,4.00
2022-10-17T01:13:31.279Z,3.80
2022-10-17T01:16:08.826Z,4.00
2022-10-17T01:19:01.137Z,4.13
2022-10-17T01:21:35.767Z,3.73
2022-10-17T01:24:24.249Z,4.13
2022-10-17T01:27:10.912Z,4.63
2022-10-17T01:30:05.931Z,4.70
2022-10-17T01:32:45.963Z,3.50
2022-10-17T01:35:28.704Z,3.83
2022-10-17T01:38:06.638Z,3.70
2022-10-17T01:40:37.987Z,4.10
2022-10-17T01:43:13.250Z,4.23
2022-10-17T01:45:53.492Z,4.03
2022-10-17T01:48:23.977Z,3.90
2022-10-17T01:51:12.851Z,3.97
2022-10-17T01:53:47.611Z,3.90
2022-10-17T01:56:14.623Z,4.67
2022-10-17T01:58:49.354Z,4.30
2022-10-17T02:01:16.210Z,3.70
2022-10-17T02:03:43.881Z,3.63
2022-10-17T02:06:10.334Z,3.60
2022-10-17T02:08:45.583Z,3.80
2022-10-17T02:11:17.015Z,5.00
2022-10-17T02:13:58.775Z,4.10
2022-10-17T02:16:48.585Z,3.93
2022-10-17T02:19:26.268Z,3.87
2022-10-17T02:22:27.662Z,3.27
2022-10-17T02:25:09.128Z,3.47
2022-10-17T02:27:35.559Z,4.23
2022-10-17T02:30:36.589Z,4.00
2022-10-17T02:33:31.083Z,3.43
2022-10-17T02:36:05.849Z,3.70
2022-10-17T02:38:32.548Z,3.40
2022-10-17T02:40:59.328Z,3.23
2022-10-17T02:43:25.871Z,3.40
2022-10-17T02:45:52.924Z,4.03
2022-10-17T02:48:25.080Z,3.47
2022-10-17T02:51:07.071Z,3.60
2022-10-17T02:53:38.997Z,3.47
2022-10-17T02:56:10.690Z,3.90
2022-10-17T02:58:38.818Z,3.10
2022-10-17T03:01:05.517Z,3.20
2022-10-17T03:03:32.759Z,3.17
2022-10-17T03:05:59.221Z,3.80
2022-10-17T03:08:25.744Z,3.63
2022-10-17T03:10:52.334Z,3.30
2022-10-17T03:13:19.052Z,3.53
2022-10-17T03:15:45.509Z,3.30
2022-10-17T03:18:12.200Z,3.17
2022-10-17T03:20:38.653Z,3.83
2022-10-17T03:23:05.121Z,3.33
2022-10-17T03:25:31.557Z,3.50
2022-10-17T03:28:00.313Z,3.73
2022-10-17T03:30:27.317Z,3.27
2022-10-17T03:32:53.772Z,3.43
2022-10-17T03:35:20.262Z,3.73
2022-10-17T03:37:46.689Z,3.70
2022-10-17T03:40:13.182Z,4.27
2022-10-17T03:42:39.638Z,3.13
2022-10-17T03:45:06.380Z,3.57
2022-10-17T03:47:32.996Z,3.20
2022-10-17T03:49:59.666Z,3.77
2022-10-17T03:52:26.177Z,3.90
2022-10-17T03:54:52.719Z,3.70
2022-10-17T03:57:19.644Z,4.43
2022-10-17T03:59:46.128Z,4.40
2022-10-17T04:02:12.597Z,4.00
2022-10-17T04:04:39.073Z,4.27
2022-10-17T04:07:05.535Z,3.97
2022-10-17T04:09:31.992Z,3.67
2022-10-17T04:11:58.428Z,3.87
2022-10-17T04:14:24.916Z,3.13
2022-10-17T04:16:51.432Z,3.83
2022-10-17T04:19:17.873Z,3.97
2022-10-17T04:21:44.317Z,3.30
2022-10-17T04:24:11.825Z,3.37
2022-10-17T04:26:38.284Z,3.63
2022-10-17T04:29:04.781Z,3.43
2022-10-17T04:31:31.591Z,3.37
2022-10-17T04:33:58.080Z,3.30
2022-10-17T04:36:24.673Z,3.37
2022-10-17T04:38:51.125Z,3.40
2022-10-17T04:41:18.824Z,3.43
2022-10-17T04:43:48.535Z,3.20
2022-10-17T04:46:17.673Z,3.23
2022-10-17T04:48:44.229Z,3.40
2022-10-17T04:51:15.892Z,3.17
2022-10-17T04:53:43.397Z,3.20
2022-10-17T04:56:12.162Z,3.50
2022-10-17T04:58:39.572Z,3.50
2022-10-17T05:01:11.129Z,3.20
2022-10-17T05:03:38.069Z,3.50
2022-10-17T05:06:15.489Z,3.37
2022-10-17T05:08:42.612Z,3.60
2022-10-17T05:11:21.949Z,3.50
2022-10-17T05:13:56.428Z,3.13
2022-10-17T05:16:24.436Z,3.13
2022-10-17T05:18:53.037Z,3.93
2022-10-17T05:21:20.547Z,3.97
2022-10-17T05:23:47.046Z,3.57
2022-10-17T05:26:14.153Z,3.40
2022-10-17T05:28:40.781Z,3.43
2022-10-17T05:31:08.517Z,3.37
2022-10-17T05:33:35.438Z,3.10
2022-10-17T05:36:01.979Z,3.40
2022-10-17T05:38:28.446Z,3.47
2022-10-17T05:40:58.948Z,3.27
2022-10-17T05:43:26.065Z,3.47
2022-10-17T05:45:52.919Z,3.53
2022-10-17T05:48:19.602Z,3.10
2022-10-17T05:50:46.123Z,3.70
2022-10-17T05:53:12.596Z,3.40
2022-10-17T05:55:39.053Z,3.70
2022-10-17T05:58:05.487Z,3.20
2022-10-17T06:00:32.068Z,3.13
2022-10-17T06:02:58.577Z,2.90
2022-10-17T06:05:25.302Z,3.30
2022-10-17T06:07:55.988Z,3.27
2022-10-17T06:10:24.753Z,3.07
2022-10-17T06:12:51.170Z,3.80
2022-10-17T06:15:17.718Z,3.90
2022-10-17T06:17:44.159Z,4.50
2022-10-17T06:20:10.856Z,3.77
2022-10-17T06:22:37.300Z,4.80
2022-10-17T06:25:04.017Z,4.50
2022-10-17T06:27:30.482Z,4.57
2022-10-17T06:29:56.944Z,4.33
2022-10-17T06:32:23.366Z,3.43
2022-10-17T06:34:49.834Z,3.33
2022-10-17T06:37:16.261Z,2.73
2022-10-17T06:39:42.820Z,2.90
2022-10-17T06:42:09.244Z,3.10
2022-10-17T06:44:35.717Z,3.30
2022-10-17T06:47:02.277Z,3.53
2022-10-17T06:49:28.813Z,3.30
2022-10-17T06:51:55.556Z,3.43
2022-10-17T06:54:21.995Z,3.50
2022-10-17T06:56:48.513Z,3.17
2022-10-17T06:59:15.686Z,3.53
2022-10-17T07:01:46.090Z,3.30
2022-10-17T07:04:13.893Z,3.20
2022-10-17T07:06:40.483Z,3.10
2022-10-17T07:09:07.075Z,3.00
2022-10-17T07:11:35.214Z,2.73
2022-10-17T07:14:02.113Z,3.13
2022-10-17T07:16:28.641Z,2.90
2022-10-17T07:18:55.497Z,2.80
2022-10-17T07:21:22.244Z,2.80
2022-10-17T07:23:48.687Z,2.83
2022-10-17T07:26:17.381Z,2.90
2022-10-17T07:28:45.724Z,2.60
2022-10-17T07:31:15.665Z,2.83
2022-10-17T07:33:43.006Z,2.70
2022-10-17T07:36:09.684Z,2.53
2022-10-17T07:38:36.414Z,2.90
2022-10-17T07:41:04.930Z,2.80
2022-10-17T07:43:31.935Z,2.63
2022-10-17T07:45:58.450Z,2.47
2022-10-17T07:48:25.116Z,2.73
2022-10-17T07:50:51.562Z,2.67
2022-10-17T07:53:18.431Z,2.70
2022-10-17T07:55:46.363Z,2.20
2022-10-17T07:58:13.512Z,2.63
2022-10-17T08:00:40.351Z,2.10
2022-10-17T08:03:07.045Z,2.47
2022-10-17T08:05:33.941Z,2.30
2022-10-17T08:08:00.704Z,2.40
2022-10-17T08:10:29.977Z,2.53
2022-10-17T08:12:57.519Z,2.60
2022-10-17T08:15:29.383Z,2.30
2022-10-17T08:17:59.181Z,2.50
2022-10-17T08:20:25.741Z,2.23
2022-10-17T08:22:56.145Z,2.00
2022-10-17T08:25:23.182Z,2.30
2022-10-17T08:27:49.957Z,1.97
2022-10-17T08:30:17.105Z,2.30
2022-10-17T08:32:43.671Z,2.37
2022-10-17T08:35:10.341Z,2.23
2022-10-17T08:37:36.982Z,2.17
2022-10-17T08:40:04.285Z,2.20
2022-10-17T08:43:35.730Z,2.60
2022-10-17T08:46:05.572Z,2.50
2022-10-17T08:48:37.004Z,2.40
2022-10-17T08:51:11.044Z,2.57
2022-10-17T08:53:50.033Z,2.67
2022-10-17T08:56:25.165Z,2.37
2022-10-17T08:59:06.372Z,2.40
2022-10-17T09:01:39.617Z,2.80
2022-10-17T09:04:12.093Z,2.70
2022-10-17T09:06:42.192Z,2.23
2022-10-17T09:09:14.696Z,2.27
2022-10-17T09:11:47.180Z,2.20
2022-10-17T09:14:35.065Z,2.57
2022-10-17T09:17:39.245Z,2.13
2022-10-17T09:20:17.853Z,2.10
2022-10-17T09:22:50.044Z,2.40
2022-10-17T09:25:18.584Z,2.50
2022-10-17T09:28:05.019Z,2.70
2022-10-17T09:30:46.397Z,2.70
2022-10-17T09:33:34.582Z,2.60
2022-10-17T09:36:09.507Z,2.40
2022-10-17T09:39:13.089Z,2.40
2022-10-17T09:41:57.143Z,2.13
2022-10-17T09:44:47.948Z,2.53
2022-10-17T09:47:30.161Z,2.77
2022-10-17T09:49:57.043Z,2.73
2022-10-17T09:52:33.823Z,2.60
2022-10-17T09:55:03.161Z,2.80
2022-10-17T09:58:02.449Z,2.93
2022-10-17T10:00:38.000Z,3.20
2022-10-17T10:03:16.190Z,2.97
2022-10-17T10:05:44.044Z,2.60
2022-10-17T10:08:16.163Z,2.73
2022-10-17T10:10:43.725Z,2.83
2022-10-17T10:13:13.187Z,2.73
2022-10-17T10:15:50.459Z,2.50
2022-10-17T10:18:26.109Z,2.73
2022-10-17T10:21:15.829Z,2.70
2022-10-17T10:23:44.118Z,3.30
2022-10-17T10:26:25.928Z,3.00
2022-10-17T10:28:55.504Z,3.00
2022-10-17T10:31:30.920Z,3.40
2022-10-17T10:33:59.600Z,2.77
2022-10-17T10:36:26.272Z,3.83
2022-10-17T10:38:58.332Z,3.90
2022-10-17T10:41:27.792Z,2.93
2022-10-17T10:43:55.015Z,3.00
2022-10-17T10:46:28.553Z,3.47
2022-10-17T10:48:59.691Z,3.10
2022-10-17T10:51:35.520Z,3.27
2022-10-17T10:54:01.971Z,3.80
2022-10-17T10:56:49.796Z,3.30
2022-10-17T10:59:41.047Z,3.20
2022-10-17T11:02:07.436Z,3.23
2022-10-17T11:04:40.086Z,3.73
2022-10-17T11:07:11.636Z,3.27
2022-10-17T11:10:01.266Z,3.03
2022-10-17T11:12:32.758Z,3.20
2022-10-17T11:15:09.643Z,2.97
2022-10-17T11:17:45.657Z,2.97
2022-10-17T11:20:18.532Z,3.30
2022-10-17T11:22:48.688Z,3.57
2022-10-17T11:25:36.007Z,3.10
2022-10-17T11:28:05.335Z,3.77
2022-10-17T11:31:03.362Z,3.10
2022-10-17T11:34:03.370Z,3.60
2022-10-17T11:36:35.096Z,3.33
2022-10-17T11:39:04.653Z,3.33
2022-10-17T11:41:40.297Z,3.07
2022-10-17T11:44:25.093Z,3.20
2022-10-17T11:46:57.633Z,3.57
2022-10-17T11:49:36.870Z,3.17
2022-10-17T11:52:37.393Z,3.20
2022-10-17T11:55:13.541Z,3.40
2022-10-17T11:58:09.754Z,2.87
2022-10-17T12:00:54.453Z,3.43
2022-10-17T12:03:55.135Z,3.60
2022-10-17T12:06:42.933Z,2.97
2022-10-17T12:09:31.243Z,3.50
2022-10-17T12:11:58.763Z,3.27
2022-10-17T12:14:41.399Z,3.80
2022-10-17T12:17:25.889Z,4.83
2022-10-17T12:19:52.435Z,4.63
2022-10-17T12:22:26.012Z,5.00
2022-10-17T12:24:58.605Z,5.03
2022-10-17T12:27:32.738Z,3.87
2022-10-17T12:30:01.251Z,4.17
2022-10-17T12:32:30.328Z,4.53
2022-10-17T12:35:03.518Z,4.47
2022-10-17T12:37:45.128Z,4.00
2022-10-17T12:40:36.429Z,4.00
2022-10-17T12:43:15.334Z,4.73
2022-10-17T12:45:48.773Z,4.60
2022-10-17T12:48:33.624Z,5.00
2022-10-17T12:53:59.717Z,6.83
2022-10-17T12:56:41.483Z,6.63
2022-10-17T12:59:13.843Z,8.80
2022-10-17T13:01:44.315Z,7.20
2022-10-17T13:04:11.115Z,8.60
2022-10-17T13:06:43.934Z,7.60
2022-10-17T13:09:27.043Z,8.00
2022-10-17T13:11:54.430Z,9.40
2022-10-17T13:14:22.229Z,8.90
2022-10-17T13:16:56.845Z,9.70
2022-10-17T13:19:44.564Z,9.60
2022-10-17T13:22:18.617Z,9.27
2022-10-17T13:24:45.210Z,9.83
2022-10-17T13:27:29.767Z,10.23
2022-10-17T13:29:59.853Z,9.60
2022-10-17T13:32:39.259Z,9.93
2022-10-17T13:35:17.278Z,9.60
2022-10-17T13:37:49.185Z,10.60
2022-10-17T13:40:44.049Z,11.73
2022-10-17T13:43:24.245Z,11.77
2022-10-17T13:46:36.805Z,12.93
2022-10-17T13:49:12.005Z,12.17
2022-10-17T13:51:43.078Z,12.40
2022-10-17T13:54:33.331Z,12.43
2022-10-17T13:57:01.282Z,13.40
2022-10-17T13:59:34.461Z,13.00
2022-10-17T14:02:02.026Z,13.40
2022-10-17T14:04:40.013Z,13.07
2022-10-17T14:07:25.094Z,14.03
2022-10-17T14:09:51.794Z,12.43
2022-10-17T14:12:19.476Z,12.53
2022-10-17T14:15:09.654Z,13.23
2022-10-17T14:17:38.567Z,15.47
2022-10-17T14:20:26.623Z,15.67
2022-10-17T14:23:17.892Z,14.83
2022-10-17T14:25:40.691Z,14.87
2022-10-17T14:28:09.183Z,14.37
2022-10-17T14:30:55.852Z,15.40
2022-10-17T14:33:26.306Z,15.73
2022-10-17T14:35:54.217Z,15.47
2022-10-17T14:38:21.189Z,16.77
2022-10-17T14:41:41.422Z,16.27
2022-10-17T14:43:57.538Z,18.20
2022-10-17T14:46:24.512Z,16.93
2022-10-17T14:48:56.446Z,19.23
2022-10-17T14:51:23.035Z,17.37
2022-10-17T14:54:20.150Z,18.03
2022-10-17T14:56:52.578Z,17.20
2022-10-17T14:59:51.669Z,17.20
2022-10-17T15:02:09.737Z,20.90
2022-10-17T15:04:36.206Z,19.93
2022-10-17T15:07:02.664Z,17.30
2022-10-17T15:09:29.129Z,17.80
2022-10-17T15:11:56.143Z,18.50
2022-10-17T15:14:22.592Z,19.27
2022-10-17T15:16:49.036Z,16.83
2022-10-17T15:19:15.515Z,18.60
2022-10-17T15:21:46.912Z,18.60
2022-10-17T15:24:15.081Z,16.30
2022-10-17T15:26:41.699Z,17.47
2022-10-17T15:29:14.252Z,17.23
2022-10-17T15:31:41.529Z,17.33
2022-10-17T15:34:07.998Z,15.60
2022-10-17T15:36:39.380Z,16.87
2022-10-17T15:39:06.027Z,16.30
2022-10-17T15:41:33.121Z,15.93
2022-10-17T15:44:00.227Z,17.67
2022-10-17T15:46:28.624Z,16.70
2022-10-17T15:48:55.880Z,15.50
2022-10-17T15:51:22.865Z,18.50
2022-10-17T15:53:49.330Z,17.67
2022-10-17T15:56:36.768Z,14.30
2022-10-17T15:59:05.693Z,16.77
2022-10-17T16:01:33.294Z,16.17
2022-10-17T16:04:00.145Z,16.10
2022-10-17T16:06:27.107Z,14.60
2022-10-17T16:08:53.666Z,13.70
2022-10-17T16:11:40.888Z,13.67
2022-10-17T16:14:11.538Z,14.33
2022-10-17T16:16:38.134Z,12.63
2022-10-17T16:19:04.922Z,12.13
2022-10-17T16:21:34.164Z,11.93
2022-10-17T16:24:00.736Z,13.83
2022-10-17T16:26:28.077Z,11.40
2022-10-17T16:28:56.013Z,10.30
2022-10-17T16:31:25.296Z,11.97
2022-10-17T16:33:53.430Z,11.07
2022-10-17T16:36:20.389Z,12.47
2022-10-17T16:38:47.418Z,12.00
2022-10-17T16:41:21.439Z,11.97
2022-10-17T16:43:49.431Z,12.93
2022-10-17T16:46:16.375Z,14.43
2022-10-17T16:48:44.017Z,14.23
2022-10-17T16:51:11.857Z,13.50
2022-10-17T16:53:44.718Z,13.30
2022-10-17T16:56:13.452Z,13.87
2022-10-17T16:58:41.360Z,14.07
2022-10-17T17:01:16.675Z,16.33
2022-10-17T17:03:44.968Z,14.70
2022-10-17T17:06:19.102Z,14.63
2022-10-17T17:08:45.629Z,17.23
2022-10-17T17:11:15.777Z,16.27
2022-10-17T17:13:42.379Z,15.03
2022-10-17T17:16:14.774Z,14.73
2022-10-17T17:18:41.769Z,16.13
2022-10-17T17:21:10.032Z,17.50
2022-10-17T17:23:38.627Z,15.90
2022-10-17T17:26:07.620Z,16.80
2022-10-17T17:28:34.989Z,17.73
2022-10-17T17:31:01.884Z,9.13
2022-10-17T17:33:30.187Z,7.53
2022-10-17T17:36:01.713Z,5.87
2022-10-17T17:38:29.623Z,5.83
2022-10-17T17:40:56.145Z,4.57
2022-10-17T17:43:22.743Z,5.40
2022-10-17T17:45:49.250Z,4.30
2022-10-17T17:48:16.167Z,4.40
2022-10-17T17:50:43.526Z,3.80
2022-10-17T17:53:11.920Z,3.87
2022-10-17T17:55:38.742Z,4.07
2022-10-17T17:58:05.388Z,2.97
2022-10-17T18:00:31.904Z,3.00
2022-10-17T18:02:58.357Z,3.63
2022-10-17T18:05:24.888Z,3.80
2022-10-17T18:07:51.466Z,3.77
2022-10-17T18:10:17.984Z,4.23
2022-10-17T18:12:44.413Z,3.93
2022-10-17T18:15:11.088Z,3.47
2022-10-17T18:17:38.174Z,3.63
2022-10-17T18:20:05.881Z,3.60
2022-10-17T18:22:33.924Z,3.97
2022-10-17T18:25:00.375Z,4.40
2022-10-17T18:27:26.829Z,4.73
2022-10-17T18:29:55.457Z,5.27
2022-10-17T18:32:22.114Z,5.57
2022-10-17T18:34:51.920Z,5.37
2022-10-17T18:37:18.524Z,4.67
2022-10-17T18:39:45.157Z,4.03
2022-10-17T18:42:11.951Z,4.40
2022-10-17T18:44:38.430Z,4.73
2022-10-17T18:47:04.918Z,4.27
2022-10-17T18:49:31.496Z,4.47
2022-10-17T18:51:59.489Z,5.33
2022-10-17T18:54:26.452Z,5.03
2022-10-17T18:56:54.479Z,5.23
2022-10-17T18:59:21.449Z,4.47
2022-10-17T19:01:48.061Z,4.70
2022-10-17T19:04:15.278Z,3.97
2022-10-17T19:06:41.832Z,4.37
2022-10-17T19:09:10.873Z,4.90
2022-10-17T19:11:38.038Z,5.77
2022-10-17T19:14:14.422Z,6.10
2022-10-17T19:16:47.735Z,4.60
2022-10-17T19:19:22.088Z,5.20
2022-10-17T19:21:49.133Z,4.80
2022-10-17T19:24:27.839Z,5.03
2022-10-17T19:26:57.296Z,4.63
2022-10-17T19:29:26.391Z,4.13
2022-10-17T19:34:25.549Z,5.67
2022-10-17T19:36:52.432Z,7.03
2022-10-17T19:39:21.026Z,6.10
2022-10-17T19:41:48.434Z,6.37
2022-10-17T19:44:15.967Z,7.30
2022-10-17T19:46:46.607Z,8.70
2022-10-17T19:49:13.992Z,8.30
2022-10-17T19:51:41.024Z,8.80
2022-10-17T19:54:07.500Z,8.00
2022-10-17T19:56:38.224Z,6.90
2022-10-17T19:59:06.272Z,8.37
2022-10-17T20:01:36.577Z,9.33
2022-10-17T20:04:03.411Z,11.17
2022-10-17T20:06:30.570Z,11.27
2022-10-17T20:08:57.131Z,10.20
2022-10-17T20:11:26.522Z,12.90
2022-10-17T20:13:54.558Z,12.17
2022-10-17T20:16:24.602Z,17.53
2022-10-17T20:18:55.869Z,13.90
2022-10-17T20:21:27.885Z,13.20
2022-10-17T20:23:55.259Z,17.07
2022-10-17T20:26:36.526Z,13.97
2022-10-17T20:29:06.030Z,12.27
2022-10-17T20:31:36.290Z,12.40
2022-10-17T20:34:03.603Z,11.63
2022-10-17T20:36:30.267Z,9.97
2022-10-17T20:38:58.065Z,9.80
2022-10-17T20:41:25.475Z,10.80
2022-10-17T20:43:53.337Z,9.60
2022-10-17T20:46:36.215Z,11.00
2022-10-17T20:49:07.644Z,12.47
2022-10-17T20:51:34.877Z,10.63
2022-10-17T20:54:02.537Z,10.50
2022-10-17T20:56:30.551Z,11.03
2022-10-17T20:58:59.525Z,9.60
2022-10-17T21:01:26.917Z,10.07
2022-10-17T21:03:53.441Z,10.03
2022-10-17T21:06:20.964Z,11.67
2022-10-17T21:08:47.717Z,9.43
2022-10-17T21:11:17.599Z,10.13
2022-10-17T21:13:45.361Z,10.20
2022-10-17T21:16:17.524Z,9.50
2022-10-17T21:18:44.773Z,8.17
2022-10-17T21:21:23.489Z,8.63
2022-10-17T21:23:50.961Z,10.73
2022-10-17T21:26:18.171Z,7.37
2022-10-17T21:28:46.024Z,9.27
2022-10-17T21:31:19.160Z,8.03
2022-10-17T21:33:49.806Z,8.13
2022-10-17T21:36:17.376Z,7.70
2022-10-17T21:38:45.785Z,9.03
2022-10-17T21:41:14.125Z,8.27
2022-10-17T21:43:41.296Z,8.27
2022-10-17T21:46:10.510Z,7.53
2022-10-17T21:48:37.460Z,8.47
2022-10-17T21:51:06.580Z,8.17
2022-10-17T21:53:33.597Z,7.53
2022-10-17T21:56:01.721Z,8.70
2022-10-17T21:58:28.993Z,7.40
2022-10-17T22:01:13.971Z,8.40
2022-10-17T22:03:46.786Z,8.37
2022-10-17T22:06:38.668Z,7.27
2022-10-17T22:09:07.554Z,8.33
2022-10-17T22:11:35.188Z,8.40
2022-10-17T22:14:04.640Z,9.27
2022-10-17T22:16:31.637Z,9.50
2022-10-17T22:19:03.161Z,9.17
2022-10-17T22:21:32.580Z,8.63
2022-10-17T22:24:01.399Z,9.20
2022-10-17T22:26:29.474Z,8.23
2022-10-17T22:28:56.597Z,8.30
2022-10-17T22:31:23.518Z,10.80
2022-10-17T22:33:50.253Z,9.73
2022-10-17T22:36:16.982Z,9.80
2022-10-17T22:38:43.473Z,10.23
2022-10-17T22:41:09.936Z,10.77
2022-10-17T22:43:36.434Z,12.03
2022-10-17T22:46:04.750Z,11.90
2022-10-17T22:48:31.630Z,10.93
2022-10-17T22:50:59.786Z,10.53
2022-10-17T22:53:27.030Z,12.90
2022-10-17T22:55:54.769Z,12.97
2022-10-17T22:58:21.602Z,12.13
2022-10-17T23:00:49.351Z,14.93
2022-10-17T23:03:16.044Z,12.70
2022-10-17T23:05:43.216Z,14.27
2022-10-17T23:08:10.210Z,15.00
2022-10-17T23:10:36.709Z,14.60
2022-10-17T23:13:03.679Z,16.30
2022-10-17T23:15:34.065Z,13.33
2022-10-17T23:18:01.345Z,15.80
2022-10-17T23:20:28.780Z,13.73
2022-10-17T23:22:55.481Z,14.30
2022-10-17T23:25:22.307Z,17.10
2022-10-17T23:27:48.857Z,16.53
2022-10-17T23:30:15.747Z,17.47
2022-10-17T23:32:42.306Z,17.77
2022-10-17T23:35:09.690Z,17.00
2022-10-17T23:37:36.761Z,15.93
2022-10-17T23:40:04.674Z,18.20
2022-10-17T23:42:31.614Z,17.20
2022-10-17T23:44:58.074Z,20.43
2022-10-17T23:47:24.595Z,16.97
2022-10-17T23:49:51.050Z,19.67
2022-10-17T23:52:17.492Z,17.50
2022-10-17T23:54:43.967Z,20.13
2022-10-17T23:57:10.438Z,16.37
2022-10-17T23:59:36.987Z,18.60
